createdAt,value
2018-09-10T00:01:09.633Z,96940.00
2018-09-10T00:03:39.709Z,96940.00
2018-09-10T00:06:09.780Z,96940.00
2018-09-10T00:08:39.900Z,96941.00
2018-09-10T00:11:09.993Z,96945.00
2018-09-10T00:13:40.064Z,96942.00
2018-09-10T00:16:10.228Z,96946.00
2018-09-10T00:18:40.337Z,96947.00
2018-09-10T00:21:10.416Z,96937.00
2018-09-10T00:23:40.696Z,96945.00
2018-09-10T00:26:10.784Z,96951.00
2018-09-10T00:28:40.876Z,96942.00
2018-09-10T00:31:10.951Z,96950.00
2018-09-10T00:33:41.889Z,96946.00
2018-09-10T00:36:12.013Z,96949.00
2018-09-10T00:38:42.100Z,96939.00
2018-09-10T00:41:12.212Z,96943.00
2018-09-10T00:43:42.287Z,96939.00
2018-09-10T00:46:12.425Z,96943.00
2018-09-10T00:48:42.492Z,96934.00
2018-09-10T00:51:12.596Z,96938.00
2018-09-10T00:53:42.667Z,96937.00
2018-09-10T00:56:12.752Z,96942.00
2018-09-10T00:58:42.833Z,96936.00
2018-09-10T01:01:12.928Z,96934.00
2018-09-10T01:03:43.008Z,96932.00
2018-09-10T01:06:13.113Z,96936.00
2018-09-10T01:08:43.206Z,96934.00
2018-09-10T01:11:13.308Z,96943.00
2018-09-10T01:13:43.419Z,96928.00
2018-09-10T01:16:13.508Z,96930.00
2018-09-10T01:18:43.597Z,96941.00
2018-09-10T01:21:13.692Z,96931.00
2018-09-10T01:23:43.916Z,96930.00
2018-09-10T01:26:14.044Z,96923.00
2018-09-10T01:28:44.139Z,96929.00
2018-09-10T01:31:14.258Z,96927.00
2018-09-10T01:33:49.521Z,96921.00
2018-09-10T01:36:19.632Z,96923.00
2018-09-10T01:38:49.751Z,96917.00
2018-09-10T01:41:19.825Z,96916.00
2018-09-10T01:43:50.080Z,96920.00
2018-09-10T01:46:20.165Z,96924.00
2018-09-10T01:48:50.284Z,96908.00
2018-09-10T01:51:20.380Z,96907.00
2018-09-10T01:53:50.505Z,96904.00
2018-09-10T01:56:20.568Z,96905.00
2018-09-10T01:58:50.664Z,96904.00
2018-09-10T02:01:20.755Z,96909.00
2018-09-10T02:03:50.840Z,96912.00
2018-09-10T02:06:21.164Z,96907.00
2018-09-10T02:08:51.264Z,96893.00
2018-09-10T02:11:21.380Z,96896.00
2018-09-10T02:13:51.879Z,96900.00
2018-09-10T02:16:21.969Z,96903.00
2018-09-10T02:18:52.036Z,96904.00
2018-09-10T02:21:22.169Z,96901.00
2018-09-10T02:23:52.252Z,96902.00
2018-09-10T02:26:22.325Z,96898.00
2018-09-10T02:28:52.405Z,96904.00
2018-09-10T02:31:22.574Z,96915.00
2018-09-10T02:33:52.596Z,96912.00
2018-09-10T02:36:22.699Z,96904.00
2018-09-10T02:38:52.807Z,96901.00
2018-09-10T02:41:22.977Z,96906.00
2018-09-10T02:43:53.067Z,96909.00
2018-09-10T02:46:23.220Z,96911.00
2018-09-10T02:48:53.289Z,96908.00
2018-09-10T02:51:23.412Z,96904.00
2018-09-10T02:53:53.480Z,96904.00
2018-09-10T02:56:23.593Z,96906.00
2018-09-10T02:58:53.724Z,96906.00
2018-09-10T03:01:23.812Z,96912.00
2018-09-10T03:03:54.000Z,96917.00
2018-09-10T03:06:24.125Z,96914.00
2018-09-10T03:08:54.225Z,96909.00
2018-09-10T03:11:24.323Z,96908.00
2018-09-10T03:13:54.400Z,96911.00
2018-09-10T03:16:24.508Z,96907.00
2018-09-10T03:18:54.612Z,96904.00
2018-09-10T03:21:24.711Z,96900.00
2018-09-10T03:23:54.792Z,96906.00
2018-09-10T03:26:24.856Z,96904.00
2018-09-10T03:28:55.092Z,96901.00
2018-09-10T03:31:25.168Z,96903.00
2018-09-10T03:33:55.253Z,96907.00
2018-09-10T03:36:25.332Z,96910.00
2018-09-10T03:38:55.425Z,96906.00
2018-09-10T03:41:25.507Z,96910.00
2018-09-10T03:43:55.628Z,96915.00
2018-09-10T03:46:25.717Z,96904.00
2018-09-10T03:48:55.788Z,96912.00
2018-09-10T03:51:25.865Z,96916.00
2018-09-10T03:53:55.996Z,96914.00
2018-09-10T03:56:26.128Z,96924.00
2018-09-10T03:58:56.271Z,96917.00
2018-09-10T04:01:26.360Z,96926.00
2018-09-10T04:03:56.434Z,96920.00
2018-09-10T04:06:26.576Z,96922.00
2018-09-10T04:08:56.648Z,96924.00
2018-09-10T04:11:26.735Z,96920.00
2018-09-10T04:13:56.839Z,96926.00
2018-09-10T04:16:26.931Z,96924.00
2018-09-10T04:18:57.073Z,96914.00
2018-09-10T04:21:27.147Z,96925.00
2018-09-10T04:23:57.231Z,96925.00
2018-09-10T04:26:27.316Z,96928.00
2018-09-10T04:28:57.404Z,96926.00
2018-09-10T04:31:27.479Z,96921.00
2018-09-10T04:33:57.574Z,96933.00
2018-09-10T04:36:27.648Z,96931.00
2018-09-10T04:38:57.748Z,96925.00
2018-09-10T04:41:33.241Z,96935.00
2018-09-10T04:44:03.414Z,96933.00
2018-09-10T04:46:33.528Z,96933.00
2018-09-10T04:49:03.637Z,96933.00
2018-09-10T04:51:34.028Z,96934.00
2018-09-10T04:54:04.450Z,96931.00
2018-09-10T04:56:34.545Z,96939.00
2018-09-10T04:59:04.629Z,96942.00
2018-09-10T05:01:34.704Z,96948.00
2018-09-10T05:04:04.820Z,96937.00
2018-09-10T05:06:34.908Z,96949.00
2018-09-10T05:09:06.963Z,96942.00
2018-09-10T05:11:37.036Z,96950.00
2018-09-10T05:14:07.119Z,96957.00
2018-09-10T05:16:37.292Z,96957.00
2018-09-10T05:19:07.368Z,96961.00
2018-09-10T05:21:37.463Z,96954.00
2018-09-10T05:24:07.594Z,96957.00
2018-09-10T05:26:37.623Z,96959.00
2018-09-10T05:29:07.812Z,96958.00
2018-09-10T05:31:37.893Z,96966.00
2018-09-10T05:34:07.977Z,96973.00
2018-09-10T05:36:38.068Z,96975.00
2018-09-10T05:39:08.628Z,96971.00
2018-09-10T05:41:38.862Z,96980.00
2018-09-10T05:44:08.908Z,96980.00
2018-09-10T05:46:38.980Z,96987.00
2018-09-10T05:49:09.073Z,96996.00
2018-09-10T05:51:39.176Z,96980.00
2018-09-10T05:54:09.240Z,96987.00
2018-09-10T05:56:39.336Z,96991.00
2018-09-10T05:59:09.481Z,96992.00
2018-09-10T06:01:39.676Z,96997.00
2018-09-10T06:04:09.748Z,96992.00
2018-09-10T06:06:39.845Z,96988.00
2018-09-10T06:09:09.932Z,96997.00
2018-09-10T06:11:40.048Z,96991.00
2018-09-10T06:14:10.140Z,97002.00
2018-09-10T06:16:40.251Z,97001.00
2018-09-10T06:19:10.342Z,97009.00
2018-09-10T06:21:40.421Z,97009.00
2018-09-10T06:24:10.496Z,97009.00
2018-09-10T06:26:40.660Z,97012.00
2018-09-10T06:29:10.769Z,97007.00
2018-09-10T06:31:40.869Z,97011.00
2018-09-10T06:34:11.073Z,97017.00
2018-09-10T06:36:41.120Z,97022.00
2018-09-10T06:39:12.751Z,97019.00
2018-09-10T06:41:42.837Z,97020.00
2018-09-10T06:44:12.896Z,97029.00
2018-09-10T06:46:42.989Z,97034.00
2018-09-10T06:49:13.060Z,97022.00
2018-09-10T06:51:43.156Z,97027.00
2018-09-10T06:54:13.240Z,97033.00
2018-09-10T06:56:43.336Z,97039.00
2018-09-10T06:59:13.429Z,97043.00
2018-09-10T07:01:43.500Z,97047.00
2018-09-10T07:04:13.600Z,97045.00
2018-09-10T07:06:43.660Z,97049.00
2018-09-10T07:09:13.745Z,97052.00
2018-09-10T07:11:43.840Z,97050.00
2018-09-10T07:14:13.895Z,97054.00
2018-09-10T07:16:44.004Z,97052.00
2018-09-10T07:19:14.117Z,97060.00
2018-09-10T07:21:44.202Z,97057.00
2018-09-10T07:24:14.280Z,97051.00
2018-09-10T07:26:44.445Z,97049.00
2018-09-10T07:29:14.519Z,97050.00
2018-09-10T07:31:44.653Z,97046.00
2018-09-10T07:34:14.752Z,97047.00
2018-09-10T07:36:44.850Z,97052.00
2018-09-10T07:39:14.920Z,97044.00
2018-09-10T07:41:44.996Z,97054.00
2018-09-10T07:44:15.164Z,97049.00
2018-09-10T07:46:45.158Z,97049.00
2018-09-10T07:49:15.288Z,97050.00
2018-09-10T07:51:45.408Z,97050.00
2018-09-10T07:54:15.622Z,97056.00
2018-09-10T07:56:45.704Z,97058.00
2018-09-10T07:59:15.808Z,97058.00
2018-09-10T08:01:45.901Z,97057.00
2018-09-10T08:04:16.041Z,97053.00
2018-09-10T08:06:46.163Z,97061.00
2018-09-10T08:09:16.314Z,97066.00
2018-09-10T08:11:46.328Z,97060.00
2018-09-10T08:14:16.407Z,97060.00
2018-09-10T08:16:46.496Z,97054.00
2018-09-10T08:19:16.600Z,97059.00
2018-09-10T08:21:46.677Z,97063.00
2018-09-10T08:24:16.835Z,97051.00
2018-09-10T08:26:46.835Z,97052.00
2018-09-10T08:29:16.920Z,97053.00
2018-09-10T08:31:46.992Z,97065.00
2018-09-10T08:34:17.073Z,97051.00
2018-09-10T08:36:47.132Z,97056.00
2018-09-10T08:39:17.240Z,97060.00
2018-09-10T08:41:47.756Z,97050.00
2018-09-10T08:44:18.119Z,97056.00
2018-09-10T08:46:48.228Z,97057.00
2018-09-10T08:49:18.296Z,97063.00
2018-09-10T08:51:48.400Z,97066.00
2018-09-10T08:54:18.578Z,97066.00
2018-09-10T08:56:48.573Z,97068.00
2018-09-10T08:59:18.648Z,97068.00
2018-09-10T09:01:48.781Z,97068.00
2018-09-10T09:04:18.845Z,97064.00
2018-09-10T09:06:49.256Z,97059.00
2018-09-10T09:09:19.378Z,97060.00
2018-09-10T09:11:49.439Z,97055.00
2018-09-10T09:14:19.524Z,97052.00
2018-09-10T09:16:49.596Z,97054.00
2018-09-10T09:19:19.685Z,97052.00
2018-09-10T09:21:49.761Z,97050.00
2018-09-10T09:24:19.861Z,97055.00
2018-09-10T09:26:49.954Z,97052.00
2018-09-10T09:29:20.046Z,97050.00
2018-09-10T09:31:50.119Z,97047.00
2018-09-10T09:34:20.293Z,97045.00
2018-09-10T09:36:55.684Z,97040.00
2018-09-10T09:39:31.036Z,97045.00
2018-09-10T09:42:06.312Z,97049.00
2018-09-10T09:44:41.620Z,97046.00
2018-09-10T09:47:11.684Z,97048.00
2018-09-10T09:49:41.776Z,97038.00
2018-09-10T09:52:11.895Z,97045.00
2018-09-10T09:54:41.972Z,97048.00
2018-09-10T09:57:12.065Z,97054.00
2018-09-10T09:59:42.236Z,97040.00
2018-09-10T10:02:17.520Z,97046.00
2018-09-10T10:04:47.609Z,97038.00
2018-09-10T10:07:18.467Z,97039.00
2018-09-10T10:09:48.552Z,97038.00
2018-09-10T10:12:18.705Z,97032.00
2018-09-10T10:14:48.727Z,97033.00
2018-09-10T10:17:20.704Z,97028.00
2018-09-10T10:19:51.837Z,97024.00
2018-09-10T10:22:21.891Z,97024.00
2018-09-10T10:24:51.987Z,97028.00
2018-09-10T10:27:22.096Z,97018.00
2018-09-10T10:29:52.232Z,97020.00
2018-09-10T10:32:22.317Z,97018.00
2018-09-10T10:34:52.392Z,97021.00
2018-09-10T10:37:22.460Z,97023.00
2018-09-10T10:39:52.600Z,97018.00
2018-09-10T10:42:22.668Z,97023.00
2018-09-10T10:44:52.848Z,97021.00
2018-09-10T10:47:22.926Z,97020.00
2018-09-10T10:49:53.010Z,97025.00
2018-09-10T10:52:23.073Z,97017.00
2018-09-10T10:54:53.192Z,97015.00
2018-09-10T10:57:23.259Z,97010.00
2018-09-10T10:59:53.348Z,97006.00
2018-09-10T11:02:23.420Z,97009.00
2018-09-10T11:04:53.492Z,97003.00
2018-09-10T11:07:23.633Z,97005.00
2018-09-10T11:09:53.741Z,97003.00
2018-09-10T11:12:23.817Z,97000.00
2018-09-10T11:14:53.922Z,97006.00
2018-09-10T11:17:24.100Z,97008.00
2018-09-10T11:19:54.160Z,97006.00
2018-09-10T11:22:24.270Z,96996.00
2018-09-10T11:24:54.448Z,96990.00
2018-09-10T11:27:24.532Z,96999.00
2018-09-10T11:29:54.636Z,96981.00
2018-09-10T11:32:24.780Z,96986.00
2018-09-10T11:34:55.202Z,96983.00
2018-09-10T11:37:25.359Z,96987.00
2018-09-10T11:39:55.492Z,96978.00
2018-09-10T11:42:25.596Z,96988.00
2018-09-10T11:44:55.709Z,96987.00
2018-09-10T11:47:25.780Z,96986.00
2018-09-10T11:49:55.838Z,97000.00
2018-09-10T11:52:25.916Z,96990.00
2018-09-10T11:54:55.976Z,96985.00
2018-09-10T11:57:26.060Z,96987.00
2018-09-10T11:59:56.412Z,96984.00
2018-09-10T12:02:26.510Z,96984.00
2018-09-10T12:04:56.620Z,96981.00
2018-09-10T12:07:26.729Z,96987.00
2018-09-10T12:09:56.829Z,96990.00
2018-09-10T12:12:26.904Z,96980.00
2018-09-10T12:14:57.054Z,96978.00
2018-09-10T12:17:27.184Z,96971.00
2018-09-10T12:19:57.316Z,96977.00
2018-09-10T12:22:27.396Z,96966.00
2018-09-10T12:24:57.589Z,96965.00
2018-09-10T12:27:27.729Z,96960.00
2018-09-10T12:29:57.810Z,96964.00
2018-09-10T12:32:28.010Z,96964.00
2018-09-10T12:34:58.141Z,96964.00
2018-09-10T12:37:28.228Z,96967.00
2018-09-10T12:39:58.444Z,96961.00
2018-09-10T12:42:28.533Z,96960.00
2018-09-10T12:44:58.629Z,96960.00
2018-09-10T12:47:28.745Z,96960.00
2018-09-10T12:49:58.904Z,96956.00
2018-09-10T12:52:28.989Z,96951.00
2018-09-10T12:54:59.128Z,96953.00
2018-09-10T12:57:29.200Z,96949.00
2018-09-10T12:59:59.287Z,96941.00
2018-09-10T13:02:29.440Z,96947.00
2018-09-10T13:04:59.528Z,96937.00
2018-09-10T13:07:29.616Z,96946.00
2018-09-10T13:09:59.715Z,96954.00
2018-09-10T13:12:29.784Z,96937.00
2018-09-10T13:14:59.924Z,96941.00
2018-09-10T13:17:30.012Z,96935.00
2018-09-10T13:20:00.168Z,96931.00
2018-09-10T13:22:30.292Z,96948.00
2018-09-10T13:25:00.381Z,96946.00
2018-09-10T13:27:30.456Z,96943.00
2018-09-10T13:30:00.541Z,96952.00
2018-09-10T13:32:30.656Z,96948.00
2018-09-10T13:35:00.724Z,96951.00
2018-09-10T13:37:30.860Z,96938.00
2018-09-10T13:40:00.972Z,96937.00
2018-09-10T13:42:31.152Z,96930.00
2018-09-10T13:45:01.271Z,96934.00
2018-09-10T13:47:31.352Z,96927.00
2018-09-10T13:50:01.423Z,96926.00
2018-09-10T13:52:31.501Z,96932.00
2018-09-10T13:55:01.649Z,96934.00
2018-09-10T13:57:31.713Z,96930.00
2018-09-10T14:00:01.812Z,96923.00
2018-09-10T14:02:31.868Z,96921.00
2018-09-10T14:05:01.957Z,96919.00
2018-09-10T14:07:32.017Z,96916.00
2018-09-10T14:10:02.141Z,96914.00
2018-09-10T14:12:32.288Z,96914.00
2018-09-10T14:15:02.444Z,96917.00
2018-09-10T14:17:32.520Z,96926.00
2018-09-10T14:20:02.588Z,96927.00
2018-09-10T14:22:32.656Z,96923.00
2018-09-10T14:25:02.752Z,96914.00
2018-09-10T14:27:32.826Z,96922.00
2018-09-10T14:30:02.991Z,96920.00
2018-09-10T14:32:33.068Z,96917.00
2018-09-10T14:35:03.241Z,96935.00
2018-09-10T14:37:33.368Z,96930.00
2018-09-10T14:40:03.481Z,96926.00
2018-09-10T14:42:33.560Z,96925.00
2018-09-10T14:45:03.708Z,96928.00
2018-09-10T14:47:33.791Z,96929.00
2018-09-10T14:50:03.928Z,96934.00
2018-09-10T14:52:34.021Z,96920.00
2018-09-10T14:55:04.670Z,96923.00
2018-09-10T14:57:34.748Z,96926.00
2018-09-10T15:00:05.016Z,96925.00
2018-09-10T15:02:35.144Z,96929.00
2018-09-10T15:05:05.265Z,96929.00
2018-09-10T15:07:35.328Z,96928.00
2018-09-10T15:10:05.483Z,96931.00
2018-09-10T15:12:35.584Z,96927.00
2018-09-10T15:15:05.713Z,96934.00
2018-09-10T15:17:35.929Z,96931.00
2018-09-10T15:20:06.089Z,96927.00
2018-09-10T15:22:36.196Z,96926.00
2018-09-10T15:25:06.361Z,96918.00
2018-09-10T15:27:36.485Z,96916.00
2018-09-10T15:30:06.643Z,96912.00
2018-09-10T15:32:36.761Z,96918.00
2018-09-10T15:35:06.913Z,96918.00
2018-09-10T15:37:36.989Z,96917.00
2018-09-10T15:40:07.196Z,96917.00
2018-09-10T15:42:37.313Z,96914.00
2018-09-10T15:45:07.487Z,96914.00
2018-09-10T15:47:37.517Z,96909.00
2018-09-10T15:50:08.024Z,96912.00
2018-09-10T15:52:38.116Z,96915.00
2018-09-10T15:55:08.209Z,96915.00
2018-09-10T15:57:38.339Z,96920.00
2018-09-10T16:00:08.507Z,96926.00
2018-09-10T16:02:38.573Z,96930.00
2018-09-10T16:05:08.720Z,96935.00
2018-09-10T16:07:38.797Z,96926.00
2018-09-10T16:10:08.889Z,96941.00
2018-09-10T16:12:38.952Z,96941.00
2018-09-10T16:15:09.099Z,96941.00
2018-09-10T16:17:39.165Z,96946.00
2018-09-10T16:20:09.334Z,96945.00
2018-09-10T16:22:39.477Z,96946.00
2018-09-10T16:25:09.644Z,96952.00
2018-09-10T16:27:39.717Z,96954.00
2018-09-10T16:30:09.853Z,96958.00
2018-09-10T16:32:39.916Z,96950.00
2018-09-10T16:35:10.019Z,96949.00
2018-09-10T16:37:40.096Z,96946.00
2018-09-10T16:40:10.232Z,96948.00
2018-09-10T16:42:40.352Z,96950.00
2018-09-10T16:45:10.506Z,96941.00
2018-09-10T16:47:40.622Z,96947.00
2018-09-10T16:50:10.732Z,96950.00
2018-09-10T16:52:40.880Z,96956.00
2018-09-10T16:55:10.968Z,96948.00
2018-09-10T16:57:41.067Z,96953.00
2018-09-10T17:00:11.132Z,96953.00
2018-09-10T17:02:41.245Z,96950.00
2018-09-10T17:05:11.316Z,96950.00
2018-09-10T17:07:41.400Z,96946.00
2018-09-10T17:10:11.496Z,96954.00
2018-09-10T17:12:41.648Z,96956.00
2018-09-10T17:15:11.700Z,96954.00
2018-09-10T17:17:41.788Z,96955.00
2018-09-10T17:20:11.876Z,96965.00
2018-09-10T17:22:42.025Z,96962.00
2018-09-10T17:25:12.039Z,96969.00
2018-09-10T17:27:42.205Z,96970.00
2018-09-10T17:30:12.282Z,96980.00
2018-09-10T17:32:42.405Z,96980.00
2018-09-10T17:35:12.484Z,96983.00
2018-09-10T17:37:42.590Z,96984.00
2018-09-10T17:40:12.662Z,96981.00
2018-09-10T17:42:42.741Z,96982.00
2018-09-10T17:45:12.828Z,96978.00
2018-09-10T17:47:42.932Z,96985.00
2018-09-10T17:50:13.044Z,96987.00
2018-09-10T17:52:43.180Z,96993.00
2018-09-10T17:55:13.268Z,97003.00
2018-09-10T17:57:43.353Z,97002.00
2018-09-10T18:00:13.452Z,97013.00
2018-09-10T18:02:43.546Z,97015.00
2018-09-10T18:05:13.675Z,97021.00
2018-09-10T18:07:43.750Z,97030.00
2018-09-10T18:10:13.860Z,97042.00
2018-09-10T18:12:44.180Z,97043.00
2018-09-10T18:15:14.288Z,97041.00
2018-09-10T18:17:44.384Z,97036.00
2018-09-10T18:20:14.452Z,97039.00
2018-09-10T18:22:44.537Z,97043.00
2018-09-10T18:25:14.622Z,97048.00
2018-09-10T18:27:44.731Z,97046.00
2018-09-10T18:30:14.892Z,97053.00
2018-09-10T18:32:45.004Z,97058.00
2018-09-10T18:35:15.156Z,97051.00
2018-09-10T18:37:45.242Z,97052.00
2018-09-10T18:40:15.374Z,97057.00
2018-09-10T18:42:45.457Z,97051.00
2018-09-10T18:45:15.608Z,97065.00
2018-09-10T18:47:45.672Z,97066.00
2018-09-10T18:50:15.788Z,97069.00
2018-09-10T18:52:45.876Z,97070.00
2018-09-10T18:55:16.008Z,97074.00
2018-09-10T18:57:46.092Z,97078.00
2018-09-10T19:00:16.296Z,97080.00
2018-09-10T19:02:46.653Z,97090.00
2018-09-10T19:05:16.753Z,97089.00
2018-09-10T19:07:46.917Z,97089.00
2018-09-10T19:10:17.001Z,97094.00
2018-09-10T19:12:47.160Z,97087.00
2018-09-10T19:15:17.496Z,97091.00
2018-09-10T19:17:47.613Z,97089.00
2018-09-10T19:20:17.695Z,97084.00
2018-09-10T19:22:47.778Z,97084.00
2018-09-10T19:25:17.861Z,97092.00
2018-09-10T19:27:47.936Z,97086.00
2018-09-10T19:30:18.059Z,97095.00
2018-09-10T19:32:48.124Z,97090.00
2018-09-10T19:35:18.221Z,97092.00
2018-09-10T19:37:48.338Z,97095.00
2018-09-10T19:40:18.372Z,97097.00
2018-09-10T19:42:48.480Z,97099.00
2018-09-10T19:45:18.572Z,97102.00
2018-09-10T19:47:48.661Z,97102.00
2018-09-10T19:50:18.773Z,97104.00
2018-09-10T19:52:48.916Z,97107.00
2018-09-10T19:55:18.997Z,97111.00
2018-09-10T19:57:49.101Z,97120.00
2018-09-10T20:00:19.261Z,97120.00
2018-09-10T20:02:49.364Z,97119.00
2018-09-10T20:05:19.448Z,97119.00
2018-09-10T20:07:49.536Z,97111.00
2018-09-10T20:10:19.628Z,97118.00
2018-09-10T20:12:49.876Z,97123.00
2018-09-10T20:15:20.034Z,97124.00
2018-09-10T20:17:50.096Z,97131.00
2018-09-10T20:20:20.208Z,97132.00
2018-09-10T20:22:50.301Z,97130.00
2018-09-10T20:25:20.437Z,97127.00
2018-09-10T20:27:50.590Z,97125.00
2018-09-10T20:30:20.703Z,97136.00
2018-09-10T20:32:50.777Z,97141.00
2018-09-10T20:35:20.903Z,97138.00
2018-09-10T20:37:50.970Z,97130.00
2018-09-10T20:40:21.060Z,97132.00
2018-09-10T20:42:51.136Z,97131.00
2018-09-10T20:45:21.216Z,97135.00
2018-09-10T20:47:51.332Z,97136.00
2018-09-10T20:50:21.524Z,97139.00
2018-09-10T20:52:51.663Z,97137.00
2018-09-10T20:55:21.763Z,97140.00
2018-09-10T20:57:51.836Z,97141.00
2018-09-10T21:00:21.920Z,97140.00
2018-09-10T21:02:52.000Z,97132.00
2018-09-10T21:05:22.104Z,97132.00
2018-09-10T21:07:52.184Z,97136.00
2018-09-10T21:10:22.560Z,97137.00
2018-09-10T21:12:52.648Z,97129.00
2018-09-10T21:15:22.817Z,97130.00
2018-09-10T21:17:52.853Z,97133.00
2018-09-10T21:20:22.987Z,97134.00
2018-09-10T21:22:53.122Z,97127.00
2018-09-10T21:25:23.316Z,97129.00
2018-09-10T21:27:53.407Z,97126.00
2018-09-10T21:30:23.492Z,97120.00
2018-09-10T21:32:53.651Z,97118.00
2018-09-10T21:35:23.721Z,97120.00
2018-09-10T21:37:53.797Z,97116.00
2018-09-10T21:40:23.931Z,97118.00
2018-09-10T21:42:54.016Z,97125.00
2018-09-10T21:45:24.157Z,97119.00
2018-09-10T21:47:54.280Z,97123.00
2018-09-10T21:50:24.392Z,97126.00
2018-09-10T21:52:54.487Z,97126.00
2018-09-10T21:55:24.579Z,97122.00
2018-09-10T21:57:54.681Z,97125.00
2018-09-10T22:00:24.810Z,97117.00
2018-09-10T22:02:54.915Z,97115.00
2018-09-10T22:05:24.997Z,97120.00
2018-09-10T22:07:55.102Z,97118.00
2018-09-10T22:10:25.254Z,97118.00
2018-09-10T22:12:55.376Z,97113.00
2018-09-10T22:15:25.450Z,97114.00
2018-09-10T22:17:55.687Z,97119.00
2018-09-10T22:20:25.704Z,97115.00
2018-09-10T22:22:56.064Z,97112.00
2018-09-10T22:25:26.191Z,97114.00
2018-09-10T22:27:56.365Z,97111.00
2018-09-10T22:30:26.422Z,97112.00
2018-09-10T22:32:56.772Z,97101.00
2018-09-10T22:35:26.869Z,97112.00
2018-09-10T22:37:56.985Z,97110.00
2018-09-10T22:40:27.113Z,97114.00
2018-09-10T22:42:57.200Z,97123.00
2018-09-10T22:45:27.308Z,97116.00
2018-09-10T22:47:57.400Z,97106.00
2018-09-10T22:50:27.496Z,97110.00
2018-09-10T22:52:57.576Z,97095.00
2018-09-10T22:55:27.680Z,97102.00
2018-09-10T22:57:57.760Z,97103.00
2018-09-10T23:00:27.841Z,97107.00
2018-09-10T23:02:57.943Z,97094.00
2018-09-10T23:05:28.016Z,97100.00
2018-09-10T23:07:58.160Z,97104.00
2018-09-10T23:10:28.252Z,97113.00
2018-09-10T23:12:58.360Z,97117.00
2018-09-10T23:15:28.495Z,97109.00
2018-09-10T23:17:58.576Z,97104.00
2018-09-10T23:20:28.655Z,97109.00
2018-09-10T23:22:58.751Z,97105.00
2018-09-10T23:25:28.825Z,97097.00
2018-09-10T23:27:58.905Z,97105.00
2018-09-10T23:30:29.000Z,97108.00
2018-09-10T23:32:59.084Z,97110.00
2018-09-10T23:35:29.188Z,97111.00
2018-09-10T23:37:59.272Z,97111.00
2018-09-10T23:40:29.371Z,97122.00
2018-09-10T23:42:59.447Z,97116.00
2018-09-10T23:45:29.560Z,97109.00
2018-09-10T23:47:59.655Z,97105.00
2018-09-10T23:50:29.752Z,97105.00
2018-09-10T23:52:59.844Z,97110.00
2018-09-10T23:55:29.936Z,97103.00
2018-09-10T23:58:00.045Z,97105.00
